sensor_id;sensor_type;location;lat;lon;timestamp;P1;durP1;ratioP1;P2;durP2;ratioP2
61640;SDS011;62201;49.966;8.342;2022-11-25T00:01:17;43.20;;;17.83;;
61640;SDS011;62201;49.966;8.342;2022-11-25T00:03:42;37.30;;;14.13;;
61640;SDS011;62201;49.966;8.342;2022-11-25T00:08:39;45.73;;;17.47;;
61640;SDS011;62201;49.966;8.342;2022-11-25T00:11:05;41.93;;;15.77;;
61640;SDS011;62201;49.966;8.342;2022-11-25T00:13:32;35.73;;;15.47;;
61640;SDS011;62201;49.966;8.342;2022-11-25T00:16:01;41.00;;;16.40;;
61640;SDS011;62201;49.966;8.342;2022-11-25T00:18:27;49.17;;;17.23;;
61640;SDS011;62201;49.966;8.342;2022-11-25T00:20:52;39.93;;;16.13;;
61640;SDS011;62201;49.966;8.342;2022-11-25T00:23:18;37.20;;;15.77;;
61640;SDS011;62201;49.966;8.342;2022-11-25T00:25:43;39.40;;;15.53;;
61640;SDS011;62201;49.966;8.342;2022-11-25T00:28:08;43.00;;;16.07;;
61640;SDS011;62201;49.966;8.342;2022-11-25T00:30:34;41.30;;;14.20;;
61640;SDS011;62201;49.966;8.342;2022-11-25T00:32:59;37.20;;;14.50;;
61640;SDS011;62201;49.966;8.342;2022-11-25T00:35:24;35.10;;;13.57;;
61640;SDS011;62201;49.966;8.342;2022-11-25T00:37:50;39.13;;;13.40;;
61640;SDS011;62201;49.966;8.342;2022-11-25T00:40:15;29.73;;;12.30;;
61640;SDS011;62201;49.966;8.342;2022-11-25T00:42:41;42.50;;;14.43;;
61640;SDS011;62201;49.966;8.342;2022-11-25T00:45:25;33.87;;;13.30;;
61640;SDS011;62201;49.966;8.342;2022-11-25T00:47:51;38.77;;;13.47;;
61640;SDS011;62201;49.966;8.342;2022-11-25T00:50:17;33.97;;;12.93;;
61640;SDS011;62201;49.966;8.342;2022-11-25T00:52:43;43.90;;;13.70;;
61640;SDS011;62201;49.966;8.342;2022-11-25T00:55:08;34.27;;;14.40;;
61640;SDS011;62201;49.966;8.342;2022-11-25T00:57:34;31.30;;;14.57;;
61640;SDS011;62201;49.966;8.342;2022-11-25T00:59:59;38.07;;;15.63;;
61640;SDS011;62201;49.966;8.342;2022-11-25T01:02:24;34.60;;;13.90;;
61640;SDS011;62201;49.966;8.342;2022-11-25T01:04:50;33.43;;;12.63;;
61640;SDS011;62201;49.966;8.342;2022-11-25T01:07:15;36.50;;;14.40;;
61640;SDS011;62201;49.966;8.342;2022-11-25T01:09:41;47.97;;;15.47;;
61640;SDS011;62201;49.966;8.342;2022-11-25T01:12:07;40.23;;;13.00;;
61640;SDS011;62201;49.966;8.342;2022-11-25T01:14:32;34.40;;;12.03;;
61640;SDS011;62201;49.966;8.342;2022-11-25T01:16:58;38.83;;;14.17;;
61640;SDS011;62201;49.966;8.342;2022-11-25T01:19:23;35.90;;;14.30;;
61640;SDS011;62201;49.966;8.342;2022-11-25T01:21:49;34.03;;;12.97;;
61640;SDS011;62201;49.966;8.342;2022-11-25T01:24:15;36.90;;;12.17;;
61640;SDS011;62201;49.966;8.342;2022-11-25T01:26:41;45.50;;;14.77;;
61640;SDS011;62201;49.966;8.342;2022-11-25T01:29:09;35.90;;;12.00;;
61640;SDS011;62201;49.966;8.342;2022-11-25T01:31:37;29.80;;;11.93;;
61640;SDS011;62201;49.966;8.342;2022-11-25T01:34:04;31.50;;;11.90;;
61640;SDS011;62201;49.966;8.342;2022-11-25T01:36:36;35.20;;;12.77;;
61640;SDS011;62201;49.966;8.342;2022-11-25T01:39:03;26.53;;;11.43;;
61640;SDS011;62201;49.966;8.342;2022-11-25T01:41:29;37.87;;;14.53;;
61640;SDS011;62201;49.966;8.342;2022-11-25T01:49:24;38.87;;;14.00;;
61640;SDS011;62201;49.966;8.342;2022-11-25T01:54:47;33.27;;;14.23;;
61640;SDS011;62201;49.966;8.342;2022-11-25T01:57:58;40.50;;;13.90;;
61640;SDS011;62201;49.966;8.342;2022-11-25T02:00:32;42.60;;;15.67;;
61640;SDS011;62201;49.966;8.342;2022-11-25T02:02:58;52.70;;;16.40;;
61640;SDS011;62201;49.966;8.342;2022-11-25T02:05:25;41.33;;;14.73;;
61640;SDS011;62201;49.966;8.342;2022-11-25T02:07:59;47.50;;;16.97;;
61640;SDS011;62201;49.966;8.342;2022-11-25T02:10:26;47.47;;;18.80;;
61640;SDS011;62201;49.966;8.342;2022-11-25T02:12:53;48.33;;;16.67;;
61640;SDS011;62201;49.966;8.342;2022-11-25T02:15:19;38.53;;;14.13;;
61640;SDS011;62201;49.966;8.342;2022-11-25T02:17:45;33.13;;;13.07;;
61640;SDS011;62201;49.966;8.342;2022-11-25T02:20:15;36.23;;;13.90;;
61640;SDS011;62201;49.966;8.342;2022-11-25T02:22:50;46.10;;;14.57;;
61640;SDS011;62201;49.966;8.342;2022-11-25T02:25:36;29.83;;;12.90;;
61640;SDS011;62201;49.966;8.342;2022-11-25T02:28:05;45.67;;;16.23;;
61640;SDS011;62201;49.966;8.342;2022-11-25T02:30:34;35.93;;;15.77;;
61640;SDS011;62201;49.966;8.342;2022-11-25T02:33:00;35.07;;;13.47;;
61640;SDS011;62201;49.966;8.342;2022-11-25T02:35:27;46.63;;;17.03;;
61640;SDS011;62201;49.966;8.342;2022-11-25T02:38:15;34.87;;;15.27;;
61640;SDS011;62201;49.966;8.342;2022-11-25T02:40:46;40.47;;;14.70;;
61640;SDS011;62201;49.966;8.342;2022-11-25T02:43:27;38.83;;;16.02;;
61640;SDS011;62201;49.966;8.342;2022-11-25T02:45:59;32.77;;;15.40;;
61640;SDS011;62201;49.966;8.342;2022-11-25T02:48:27;39.57;;;15.10;;
61640;SDS011;62201;49.966;8.342;2022-11-25T02:50:55;37.13;;;16.13;;
61640;SDS011;62201;49.966;8.342;2022-11-25T02:53:21;38.40;;;16.40;;
61640;SDS011;62201;49.966;8.342;2022-11-25T02:55:46;39.27;;;15.27;;
61640;SDS011;62201;49.966;8.342;2022-11-25T02:58:12;33.13;;;15.77;;
61640;SDS011;62201;49.966;8.342;2022-11-25T03:00:39;36.57;;;15.37;;
61640;SDS011;62201;49.966;8.342;2022-11-25T03:03:05;33.97;;;14.70;;
61640;SDS011;62201;49.966;8.342;2022-11-25T03:05:31;28.30;;;13.90;;
61640;SDS011;62201;49.966;8.342;2022-11-25T03:07:56;46.07;;;17.10;;
61640;SDS011;62201;49.966;8.342;2022-11-25T03:10:22;35.37;;;15.87;;
61640;SDS011;62201;49.966;8.342;2022-11-25T03:12:47;42.83;;;17.03;;
61640;SDS011;62201;49.966;8.342;2022-11-25T03:15:13;38.43;;;15.57;;
61640;SDS011;62201;49.966;8.342;2022-11-25T03:17:39;50.47;;;17.20;;
61640;SDS011;62201;49.966;8.342;2022-11-25T03:20:05;43.07;;;16.37;;
61640;SDS011;62201;49.966;8.342;2022-11-25T03:22:32;32.00;;;13.43;;
61640;SDS011;62201;49.966;8.342;2022-11-25T03:24:57;29.07;;;15.90;;
61640;SDS011;62201;49.966;8.342;2022-11-25T03:27:22;32.83;;;14.70;;
61640;SDS011;62201;49.966;8.342;2022-11-25T03:29:48;29.03;;;13.03;;
61640;SDS011;62201;49.966;8.342;2022-11-25T03:32:13;40.73;;;15.53;;
61640;SDS011;62201;49.966;8.342;2022-11-25T03:34:39;29.70;;;12.80;;
61640;SDS011;62201;49.966;8.342;2022-11-25T03:37:05;34.37;;;13.97;;
61640;SDS011;62201;49.966;8.342;2022-11-25T03:39:31;33.63;;;13.93;;
61640;SDS011;62201;49.966;8.342;2022-11-25T03:41:56;30.40;;;14.00;;
61640;SDS011;62201;49.966;8.342;2022-11-25T03:44:21;32.60;;;13.23;;
61640;SDS011;62201;49.966;8.342;2022-11-25T03:46:47;34.77;;;13.20;;
61640;SDS011;62201;49.966;8.342;2022-11-25T03:49:12;28.83;;;12.70;;
61640;SDS011;62201;49.966;8.342;2022-11-25T03:51:37;28.30;;;12.33;;
61640;SDS011;62201;49.966;8.342;2022-11-25T03:54:03;26.70;;;11.80;;
61640;SDS011;62201;49.966;8.342;2022-11-25T03:56:28;25.97;;;11.53;;
61640;SDS011;62201;49.966;8.342;2022-11-25T03:58:54;29.00;;;11.13;;
61640;SDS011;62201;49.966;8.342;2022-11-25T04:01:19;25.20;;;11.80;;
61640;SDS011;62201;49.966;8.342;2022-11-25T04:03:45;27.63;;;11.77;;
61640;SDS011;62201;49.966;8.342;2022-11-25T04:06:10;24.53;;;10.40;;
61640;SDS011;62201;49.966;8.342;2022-11-25T04:08:35;26.53;;;10.57;;
61640;SDS011;62201;49.966;8.342;2022-11-25T04:11:01;31.50;;;11.90;;
61640;SDS011;62201;49.966;8.342;2022-11-25T04:13:26;26.13;;;11.53;;
61640;SDS011;62201;49.966;8.342;2022-11-25T04:15:52;27.27;;;11.10;;
61640;SDS011;62201;49.966;8.342;2022-11-25T04:18:18;32.80;;;12.87;;
61640;SDS011;62201;49.966;8.342;2022-11-25T04:20:44;31.57;;;11.53;;
61640;SDS011;62201;49.966;8.342;2022-11-25T04:23:10;26.17;;;11.30;;
61640;SDS011;62201;49.966;8.342;2022-11-25T04:25:37;25.87;;;9.90;;
61640;SDS011;62201;49.966;8.342;2022-11-25T04:28:04;28.90;;;11.17;;
61640;SDS011;62201;49.966;8.342;2022-11-25T04:30:29;28.73;;;11.27;;
61640;SDS011;62201;49.966;8.342;2022-11-25T04:32:55;30.40;;;11.73;;
61640;SDS011;62201;49.966;8.342;2022-11-25T04:35:21;22.10;;;9.17;;
61640;SDS011;62201;49.966;8.342;2022-11-25T04:37:46;34.77;;;11.93;;
61640;SDS011;62201;49.966;8.342;2022-11-25T04:40:12;30.70;;;11.80;;
61640;SDS011;62201;49.966;8.342;2022-11-25T04:42:38;27.73;;;11.50;;
61640;SDS011;62201;49.966;8.342;2022-11-25T04:45:07;26.23;;;10.73;;
61640;SDS011;62201;49.966;8.342;2022-11-25T04:47:39;23.40;;;10.23;;
61640;SDS011;62201;49.966;8.342;2022-11-25T04:50:06;25.87;;;10.87;;
61640;SDS011;62201;49.966;8.342;2022-11-25T04:52:33;25.50;;;10.67;;
61640;SDS011;62201;49.966;8.342;2022-11-25T04:54:59;24.60;;;10.43;;
61640;SDS011;62201;49.966;8.342;2022-11-25T04:57:24;25.47;;;11.10;;
61640;SDS011;62201;49.966;8.342;2022-11-25T04:59:50;23.57;;;10.53;;
61640;SDS011;62201;49.966;8.342;2022-11-25T05:02:17;31.83;;;12.43;;
61640;SDS011;62201;49.966;8.342;2022-11-25T05:04:44;24.63;;;11.47;;
61640;SDS011;62201;49.966;8.342;2022-11-25T05:07:11;25.73;;;10.77;;
61640;SDS011;62201;49.966;8.342;2022-11-25T05:09:37;28.23;;;10.80;;
61640;SDS011;62201;49.966;8.342;2022-11-25T05:12:03;25.47;;;10.57;;
61640;SDS011;62201;49.966;8.342;2022-11-25T05:14:29;26.57;;;11.53;;
61640;SDS011;62201;49.966;8.342;2022-11-25T05:16:55;22.97;;;11.03;;
61640;SDS011;62201;49.966;8.342;2022-11-25T05:19:21;28.77;;;12.10;;
61640;SDS011;62201;49.966;8.342;2022-11-25T05:21:46;28.90;;;11.93;;
61640;SDS011;62201;49.966;8.342;2022-11-25T05:24:11;31.50;;;11.30;;
61640;SDS011;62201;49.966;8.342;2022-11-25T05:26:37;29.60;;;11.13;;
61640;SDS011;62201;49.966;8.342;2022-11-25T05:29:02;32.77;;;10.80;;
61640;SDS011;62201;49.966;8.342;2022-11-25T05:31:28;24.97;;;9.97;;
61640;SDS011;62201;49.966;8.342;2022-11-25T05:33:53;28.03;;;11.03;;
61640;SDS011;62201;49.966;8.342;2022-11-25T05:36:18;25.00;;;10.77;;
61640;SDS011;62201;49.966;8.342;2022-11-25T05:38:44;27.30;;;10.37;;
61640;SDS011;62201;49.966;8.342;2022-11-25T05:41:09;27.17;;;10.97;;
61640;SDS011;62201;49.966;8.342;2022-11-25T05:43:35;47.40;;;19.00;;
61640;SDS011;62201;49.966;8.342;2022-11-25T05:46:05;35.33;;;13.07;;
61640;SDS011;62201;49.966;8.342;2022-11-25T05:48:33;34.60;;;13.73;;
61640;SDS011;62201;49.966;8.342;2022-11-25T05:50:59;27.40;;;9.87;;
61640;SDS011;62201;49.966;8.342;2022-11-25T05:53:26;30.70;;;12.73;;
61640;SDS011;62201;49.966;8.342;2022-11-25T05:55:55;41.07;;;16.27;;
61640;SDS011;62201;49.966;8.342;2022-11-25T05:58:23;47.00;;;16.43;;
61640;SDS011;62201;49.966;8.342;2022-11-25T06:00:49;39.10;;;14.87;;
61640;SDS011;62201;49.966;8.342;2022-11-25T06:03:14;34.00;;;12.97;;
61640;SDS011;62201;49.966;8.342;2022-11-25T06:05:40;28.80;;;12.43;;
61640;SDS011;62201;49.966;8.342;2022-11-25T06:08:06;30.13;;;11.23;;
61640;SDS011;62201;49.966;8.342;2022-11-25T06:10:32;25.23;;;9.73;;
61640;SDS011;62201;49.966;8.342;2022-11-25T06:12:57;32.53;;;11.50;;
61640;SDS011;62201;49.966;8.342;2022-11-25T06:15:23;31.53;;;11.43;;
61640;SDS011;62201;49.966;8.342;2022-11-25T06:17:48;29.73;;;13.13;;
61640;SDS011;62201;49.966;8.342;2022-11-25T06:20:13;33.57;;;12.73;;
61640;SDS011;62201;49.966;8.342;2022-11-25T06:22:39;26.57;;;11.57;;
61640;SDS011;62201;49.966;8.342;2022-11-25T06:25:04;29.10;;;12.47;;
61640;SDS011;62201;49.966;8.342;2022-11-25T06:27:30;33.20;;;12.93;;
61640;SDS011;62201;49.966;8.342;2022-11-25T06:29:55;27.77;;;11.53;;
61640;SDS011;62201;49.966;8.342;2022-11-25T06:32:21;33.60;;;13.43;;
61640;SDS011;62201;49.966;8.342;2022-11-25T06:34:46;30.23;;;11.50;;
61640;SDS011;62201;49.966;8.342;2022-11-25T06:37:12;35.10;;;13.03;;
61640;SDS011;62201;49.966;8.342;2022-11-25T06:39:37;29.30;;;12.53;;
61640;SDS011;62201;49.966;8.342;2022-11-25T06:42:02;31.40;;;12.90;;
61640;SDS011;62201;49.966;8.342;2022-11-25T06:44:28;28.87;;;12.87;;
61640;SDS011;62201;49.966;8.342;2022-11-25T06:46:53;28.63;;;12.70;;
61640;SDS011;62201;49.966;8.342;2022-11-25T06:49:18;23.67;;;11.43;;
61640;SDS011;62201;49.966;8.342;2022-11-25T06:51:44;36.37;;;12.70;;
61640;SDS011;62201;49.966;8.342;2022-11-25T06:54:09;27.73;;;11.60;;
61640;SDS011;62201;49.966;8.342;2022-11-25T06:56:35;25.97;;;12.03;;
61640;SDS011;62201;49.966;8.342;2022-11-25T06:59:01;39.63;;;15.07;;
61640;SDS011;62201;49.966;8.342;2022-11-25T07:01:28;26.37;;;12.07;;
61640;SDS011;62201;49.966;8.342;2022-11-25T07:03:58;23.63;;;10.57;;
61640;SDS011;62201;49.966;8.342;2022-11-25T07:06:27;32.30;;;12.68;;
61640;SDS011;62201;49.966;8.342;2022-11-25T07:08:53;35.23;;;12.63;;
61640;SDS011;62201;49.966;8.342;2022-11-25T07:11:23;34.43;;;15.30;;
61640;SDS011;62201;49.966;8.342;2022-11-25T07:13:50;29.20;;;14.57;;
61640;SDS011;62201;49.966;8.342;2022-11-25T07:16:17;29.73;;;12.23;;
61640;SDS011;62201;49.966;8.342;2022-11-25T07:18:43;25.00;;;12.27;;
61640;SDS011;62201;49.966;8.342;2022-11-25T07:21:10;28.80;;;12.33;;
61640;SDS011;62201;49.966;8.342;2022-11-25T07:23:37;30.57;;;12.40;;
61640;SDS011;62201;49.966;8.342;2022-11-25T07:26:06;28.07;;;10.50;;
61640;SDS011;62201;49.966;8.342;2022-11-25T07:28:39;26.70;;;11.93;;
61640;SDS011;62201;49.966;8.342;2022-11-25T07:31:09;30.57;;;12.13;;
61640;SDS011;62201;49.966;8.342;2022-11-25T07:33:40;27.47;;;12.47;;
61640;SDS011;62201;49.966;8.342;2022-11-25T07:36:07;40.63;;;18.90;;
61640;SDS011;62201;49.966;8.342;2022-11-25T07:38:34;20.20;;;10.90;;
61640;SDS011;62201;49.966;8.342;2022-11-25T07:41:04;27.23;;;11.70;;
61640;SDS011;62201;49.966;8.342;2022-11-25T07:43:34;24.77;;;11.37;;
61640;SDS011;62201;49.966;8.342;2022-11-25T07:46:34;31.63;;;12.87;;
61640;SDS011;62201;49.966;8.342;2022-11-25T07:48:54;31.48;;;12.63;;
61640;SDS011;62201;49.966;8.342;2022-11-25T07:51:26;34.90;;;14.20;;
61640;SDS011;62201;49.966;8.342;2022-11-25T07:56:21;45.60;;;17.10;;
61640;SDS011;62201;49.966;8.342;2022-11-25T07:58:47;29.43;;;11.33;;
61640;SDS011;62201;49.966;8.342;2022-11-25T08:01:14;23.97;;;12.37;;
61640;SDS011;62201;49.966;8.342;2022-11-25T08:03:41;28.93;;;11.47;;
61640;SDS011;62201;49.966;8.342;2022-11-25T08:06:08;29.60;;;12.80;;
61640;SDS011;62201;49.966;8.342;2022-11-25T08:08:36;24.77;;;12.03;;
61640;SDS011;62201;49.966;8.342;2022-11-25T08:11:35;28.47;;;14.13;;
61640;SDS011;62201;49.966;8.342;2022-11-25T08:13:54;29.73;;;12.23;;
61640;SDS011;62201;49.966;8.342;2022-11-25T08:16:21;28.37;;;11.60;;
61640;SDS011;62201;49.966;8.342;2022-11-25T08:18:48;22.33;;;13.00;;
61640;SDS011;62201;49.966;8.342;2022-11-25T08:21:14;29.40;;;11.57;;
61640;SDS011;62201;49.966;8.342;2022-11-25T08:23:41;22.73;;;10.17;;
61640;SDS011;62201;49.966;8.342;2022-11-25T08:26:09;19.40;;;9.90;;
61640;SDS011;62201;49.966;8.342;2022-11-25T08:28:36;24.07;;;9.80;;
61640;SDS011;62201;49.966;8.342;2022-11-25T08:31:07;21.77;;;9.07;;
61640;SDS011;62201;49.966;8.342;2022-11-25T08:33:35;24.40;;;8.93;;
61640;SDS011;62201;49.966;8.342;2022-11-25T08:36:00;23.03;;;8.13;;
61640;SDS011;62201;49.966;8.342;2022-11-25T08:38:26;23.83;;;8.50;;
61640;SDS011;62201;49.966;8.342;2022-11-25T08:40:52;22.13;;;9.33;;
61640;SDS011;62201;49.966;8.342;2022-11-25T08:43:21;25.87;;;9.93;;
61640;SDS011;62201;49.966;8.342;2022-11-25T08:45:48;21.13;;;8.90;;
61640;SDS011;62201;49.966;8.342;2022-11-25T08:48:15;20.63;;;9.27;;
61640;SDS011;62201;49.966;8.342;2022-11-25T08:50:42;17.80;;;8.90;;
61640;SDS011;62201;49.966;8.342;2022-11-25T08:53:11;23.63;;;9.33;;
61640;SDS011;62201;49.966;8.342;2022-11-25T08:55:37;23.43;;;8.80;;
61640;SDS011;62201;49.966;8.342;2022-11-25T08:58:03;23.80;;;8.73;;
61640;SDS011;62201;49.966;8.342;2022-11-25T09:00:30;22.57;;;8.10;;
61640;SDS011;62201;49.966;8.342;2022-11-25T09:02:55;18.50;;;7.53;;
61640;SDS011;62201;49.966;8.342;2022-11-25T09:05:21;25.47;;;8.97;;
61640;SDS011;62201;49.966;8.342;2022-11-25T09:07:46;22.90;;;7.27;;
61640;SDS011;62201;49.966;8.342;2022-11-25T09:10:13;21.90;;;8.40;;
61640;SDS011;62201;49.966;8.342;2022-11-25T09:12:40;21.87;;;8.20;;
61640;SDS011;62201;49.966;8.342;2022-11-25T09:15:06;18.87;;;7.93;;
61640;SDS011;62201;49.966;8.342;2022-11-25T09:17:31;20.80;;;7.97;;
61640;SDS011;62201;49.966;8.342;2022-11-25T09:19:59;21.87;;;8.93;;
61640;SDS011;62201;49.966;8.342;2022-11-25T09:22:25;24.13;;;10.83;;
61640;SDS011;62201;49.966;8.342;2022-11-25T09:24:50;23.03;;;10.37;;
61640;SDS011;62201;49.966;8.342;2022-11-25T09:27:16;20.63;;;10.83;;
61640;SDS011;62201;49.966;8.342;2022-11-25T09:29:41;24.50;;;10.30;;
61640;SDS011;62201;49.966;8.342;2022-11-25T09:32:07;20.53;;;10.60;;
61640;SDS011;62201;49.966;8.342;2022-11-25T09:34:32;24.27;;;10.50;;
61640;SDS011;62201;49.966;8.342;2022-11-25T09:36:57;19.10;;;9.73;;
61640;SDS011;62201;49.966;8.342;2022-11-25T09:39:23;18.17;;;9.67;;
61640;SDS011;62201;49.966;8.342;2022-11-25T09:45:15;22.37;;;10.10;;
61640;SDS011;62201;49.966;8.342;2022-11-25T09:48:08;23.27;;;10.40;;
61640;SDS011;62201;49.966;8.342;2022-11-25T09:50:54;24.30;;;9.90;;
61640;SDS011;62201;49.966;8.342;2022-11-25T09:53:46;21.20;;;10.13;;
61640;SDS011;62201;49.966;8.342;2022-11-25T09:58:52;24.23;;;10.73;;
61640;SDS011;62201;49.966;8.342;2022-11-25T10:01:24;18.17;;;9.57;;
61640;SDS011;62201;49.966;8.342;2022-11-25T10:04:03;20.97;;;10.37;;
61640;SDS011;62201;49.966;8.342;2022-11-25T10:06:35;19.63;;;10.40;;
61640;SDS011;62201;49.966;8.342;2022-11-25T10:09:10;21.33;;;9.93;;
61640;SDS011;62201;49.966;8.342;2022-11-25T10:16:48;26.27;;;10.40;;
61640;SDS011;62201;49.966;8.342;2022-11-25T10:22:12;26.73;;;14.23;;
61640;SDS011;62201;49.966;8.342;2022-11-25T10:24:50;21.33;;;10.30;;
61640;SDS011;62201;49.966;8.342;2022-11-25T10:27:22;24.63;;;9.60;;
61640;SDS011;62201;49.966;8.342;2022-11-25T10:29:55;20.00;;;8.40;;
61640;SDS011;62201;49.966;8.342;2022-11-25T10:32:27;22.03;;;9.57;;
61640;SDS011;62201;49.966;8.342;2022-11-25T10:35:02;14.30;;;8.17;;
61640;SDS011;62201;49.966;8.342;2022-11-25T10:37:36;17.87;;;8.70;;
61640;SDS011;62201;49.966;8.342;2022-11-25T10:40:08;12.80;;;7.17;;
61640;SDS011;62201;49.966;8.342;2022-11-25T10:42:38;17.17;;;8.63;;
61640;SDS011;62201;49.966;8.342;2022-11-25T10:45:03;16.27;;;8.07;;
61640;SDS011;62201;49.966;8.342;2022-11-25T10:47:34;19.83;;;8.43;;
61640;SDS011;62201;49.966;8.342;2022-11-25T10:52:39;15.40;;;7.32;;
61640;SDS011;62201;49.966;8.342;2022-11-25T10:55:23;18.13;;;7.03;;
61640;SDS011;62201;49.966;8.342;2022-11-25T10:57:51;16.10;;;6.75;;
61640;SDS011;62201;49.966;8.342;2022-11-25T11:00:27;13.95;;;6.63;;
61640;SDS011;62201;49.966;8.342;2022-11-25T11:03:11;15.85;;;6.53;;
61640;SDS011;62201;49.966;8.342;2022-11-25T11:05:45;21.20;;;6.30;;
61640;SDS011;62201;49.966;8.342;2022-11-25T11:10:44;13.13;;;5.60;;
61640;SDS011;62201;49.966;8.342;2022-11-25T11:13:22;13.68;;;6.05;;
61640;SDS011;62201;49.966;8.342;2022-11-25T11:15:52;18.13;;;7.15;;
61640;SDS011;62201;49.966;8.342;2022-11-25T11:18:20;19.10;;;6.25;;
61640;SDS011;62201;49.966;8.342;2022-11-25T11:23:18;14.68;;;6.00;;
61640;SDS011;62201;49.966;8.342;2022-11-25T11:26:00;22.27;;;6.95;;
61640;SDS011;62201;49.966;8.342;2022-11-25T11:28:36;17.08;;;6.63;;
61640;SDS011;62201;49.966;8.342;2022-11-25T11:33:52;16.63;;;7.22;;
61640;SDS011;62201;49.966;8.342;2022-11-25T11:42:25;12.98;;;5.82;;
61640;SDS011;62201;49.966;8.342;2022-11-25T11:45:02;15.07;;;5.90;;
61640;SDS011;62201;49.966;8.342;2022-11-25T11:52:56;15.10;;;6.53;;
61640;SDS011;62201;49.966;8.342;2022-11-25T11:55:53;16.75;;;6.72;;
61640;SDS011;62201;49.966;8.342;2022-11-25T11:58:28;16.80;;;6.32;;
61640;SDS011;62201;49.966;8.342;2022-11-25T12:01:28;17.77;;;6.47;;
61640;SDS011;62201;49.966;8.342;2022-11-25T12:06:35;14.23;;;6.43;;
61640;SDS011;62201;49.966;8.342;2022-11-25T12:09:03;14.68;;;6.32;;
61640;SDS011;62201;49.966;8.342;2022-11-25T12:11:38;14.65;;;6.28;;
61640;SDS011;62201;49.966;8.342;2022-11-25T12:14:10;15.63;;;6.35;;
61640;SDS011;62201;49.966;8.342;2022-11-25T12:17:01;14.18;;;6.03;;
61640;SDS011;62201;49.966;8.342;2022-11-25T12:19:37;23.92;;;6.18;;
61640;SDS011;62201;49.966;8.342;2022-11-25T12:22:28;16.75;;;6.25;;
61640;SDS011;62201;49.966;8.342;2022-11-25T12:25:00;15.43;;;6.30;;
61640;SDS011;62201;49.966;8.342;2022-11-25T12:30:07;15.07;;;5.50;;
61640;SDS011;62201;49.966;8.342;2022-11-25T12:35:04;14.90;;;5.35;;
61640;SDS011;62201;49.966;8.342;2022-11-25T12:40:36;14.55;;;5.53;;
61640;SDS011;62201;49.966;8.342;2022-11-25T12:45:50;15.30;;;4.88;;
61640;SDS011;62201;49.966;8.342;2022-11-25T12:48:31;12.10;;;4.90;;
61640;SDS011;62201;49.966;8.342;2022-11-25T12:56:20;13.57;;;4.78;;
61640;SDS011;62201;49.966;8.342;2022-11-25T12:59:02;10.25;;;4.40;;
61640;SDS011;62201;49.966;8.342;2022-11-25T13:01:54;14.38;;;5.00;;
61640;SDS011;62201;49.966;8.342;2022-11-25T13:07:22;19.02;;;5.85;;
61640;SDS011;62201;49.966;8.342;2022-11-25T13:09:58;13.38;;;5.20;;
61640;SDS011;62201;49.966;8.342;2022-11-25T13:17:47;11.98;;;4.10;;
61640;SDS011;62201;49.966;8.342;2022-11-25T13:23:00;15.52;;;4.60;;
61640;SDS011;62201;49.966;8.342;2022-11-25T13:25:29;11.57;;;3.97;;
61640;SDS011;62201;49.966;8.342;2022-11-25T13:27:56;15.07;;;4.30;;
61640;SDS011;62201;49.966;8.342;2022-11-25T13:35:55;10.95;;;4.95;;
61640;SDS011;62201;49.966;8.342;2022-11-25T13:41:00;14.43;;;4.45;;
61640;SDS011;62201;49.966;8.342;2022-11-25T13:43:28;14.20;;;4.72;;
61640;SDS011;62201;49.966;8.342;2022-11-25T13:45:53;14.60;;;4.20;;
61640;SDS011;62201;49.966;8.342;2022-11-25T13:51:15;15.93;;;5.90;;
61640;SDS011;62201;49.966;8.342;2022-11-25T13:53:56;12.32;;;5.60;;
61640;SDS011;62201;49.966;8.342;2022-11-25T13:56:26;11.52;;;4.50;;
61640;SDS011;62201;49.966;8.342;2022-11-25T14:01:34;8.95;;;3.28;;
61640;SDS011;62201;49.966;8.342;2022-11-25T14:04:03;13.15;;;3.42;;
61640;SDS011;62201;49.966;8.342;2022-11-25T14:09:24;9.73;;;3.70;;
61640;SDS011;62201;49.966;8.342;2022-11-25T14:12:19;13.90;;;3.83;;
61640;SDS011;62201;49.966;8.342;2022-11-25T14:20:42;11.93;;;3.90;;
61640;SDS011;62201;49.966;8.342;2022-11-25T14:23:16;16.65;;;2.90;;
61640;SDS011;62201;49.966;8.342;2022-11-25T14:30:54;11.98;;;3.90;;
61640;SDS011;62201;49.966;8.342;2022-11-25T14:34:10;13.85;;;3.65;;
61640;SDS011;62201;49.966;8.342;2022-11-25T14:36:20;12.98;;;3.40;;
61640;SDS011;62201;49.966;8.342;2022-11-25T14:38:54;15.02;;;3.90;;
61640;SDS011;62201;49.966;8.342;2022-11-25T14:44:21;13.75;;;3.88;;
61640;SDS011;62201;49.966;8.342;2022-11-25T14:46:56;10.90;;;3.35;;
61640;SDS011;62201;49.966;8.342;2022-11-25T14:49:22;12.68;;;3.53;;
61640;SDS011;62201;49.966;8.342;2022-11-25T14:51:48;12.88;;;3.50;;
61640;SDS011;62201;49.966;8.342;2022-11-25T14:54:18;14.60;;;3.53;;
61640;SDS011;62201;49.966;8.342;2022-11-25T14:56:45;13.20;;;3.30;;
61640;SDS011;62201;49.966;8.342;2022-11-25T14:59:11;10.05;;;3.25;;
61640;SDS011;62201;49.966;8.342;2022-11-25T15:01:38;13.20;;;3.67;;
61640;SDS011;62201;49.966;8.342;2022-11-25T15:04:16;12.25;;;3.83;;
61640;SDS011;62201;49.966;8.342;2022-11-25T15:06:44;11.68;;;3.75;;
61640;SDS011;62201;49.966;8.342;2022-11-25T15:11:50;12.48;;;3.30;;
61640;SDS011;62201;49.966;8.342;2022-11-25T15:14:31;14.10;;;3.95;;
61640;SDS011;62201;49.966;8.342;2022-11-25T15:17:00;17.95;;;4.35;;
61640;SDS011;62201;49.966;8.342;2022-11-25T15:19:32;14.13;;;3.20;;
61640;SDS011;62201;49.966;8.342;2022-11-25T15:22:03;10.15;;;3.83;;
61640;SDS011;62201;49.966;8.342;2022-11-25T15:24:31;11.52;;;3.92;;
61640;SDS011;62201;49.966;8.342;2022-11-25T15:27:10;14.32;;;3.70;;
61640;SDS011;62201;49.966;8.342;2022-11-25T15:29:39;12.82;;;3.67;;
61640;SDS011;62201;49.966;8.342;2022-11-25T15:32:07;13.88;;;3.78;;
61640;SDS011;62201;49.966;8.342;2022-11-25T15:34:38;15.82;;;4.32;;
61640;SDS011;62201;49.966;8.342;2022-11-25T15:37:04;14.75;;;4.72;;
61640;SDS011;62201;49.966;8.342;2022-11-25T15:39:29;12.80;;;3.77;;
61640;SDS011;62201;49.966;8.342;2022-11-25T15:41:56;15.40;;;4.38;;
61640;SDS011;62201;49.966;8.342;2022-11-25T15:44:35;13.05;;;4.25;;
61640;SDS011;62201;49.966;8.342;2022-11-25T15:47:05;14.00;;;4.87;;
61640;SDS011;62201;49.966;8.342;2022-11-25T15:49:45;13.05;;;5.18;;
61640;SDS011;62201;49.966;8.342;2022-11-25T15:52:17;15.55;;;4.53;;
61640;SDS011;62201;49.966;8.342;2022-11-25T15:54:45;15.37;;;4.70;;
61640;SDS011;62201;49.966;8.342;2022-11-25T15:57:21;19.47;;;5.97;;
61640;SDS011;62201;49.966;8.342;2022-11-25T15:59:48;20.57;;;5.43;;
61640;SDS011;62201;49.966;8.342;2022-11-25T16:05:35;23.63;;;6.20;;
61640;SDS011;62201;49.966;8.342;2022-11-25T16:08:20;19.77;;;5.80;;
61640;SDS011;62201;49.966;8.342;2022-11-25T16:11:14;17.30;;;5.70;;
61640;SDS011;62201;49.966;8.342;2022-11-25T16:13:43;17.77;;;5.90;;
61640;SDS011;62201;49.966;8.342;2022-11-25T16:16:14;16.10;;;5.60;;
61640;SDS011;62201;49.966;8.342;2022-11-25T16:19:09;25.60;;;6.70;;
61640;SDS011;62201;49.966;8.342;2022-11-25T16:21:40;16.30;;;6.70;;
61640;SDS011;62201;49.966;8.342;2022-11-25T16:26:53;21.63;;;6.47;;
61640;SDS011;62201;49.966;8.342;2022-11-25T16:29:26;23.67;;;7.13;;
61640;SDS011;62201;49.966;8.342;2022-11-25T16:31:57;17.00;;;7.13;;
61640;SDS011;62201;49.966;8.342;2022-11-25T16:34:23;29.43;;;8.80;;
61640;SDS011;62201;49.966;8.342;2022-11-25T16:36:50;24.90;;;9.50;;